Time;durP1;ratioP1;P1;durP2;ratioP2;P2;SDS_P1;SDS_P2;PMS_P1;PMS_P2;Temp;Humidity;BMP_temperature;BMP_pressure;BME280_temperature;BME280_humidity;BME280_pressure;Samples;Min_cycle;Max_cycle;Signal;HPM_P1;HPM_P2
2021/01/04 00:02:01;;;;;;;18.83;13.30;;;1.80;99.90;;;1.37;89.04;101004.72;4119353;28;20065;-71
2021/01/04 00:04:45;;;;;;;22.73;14.80;;;1.80;99.90;;;1.55;89.28;101003.59;4118776;28;20049;-72
2021/01/04 00:07:09;;;;;;;20.27;14.35;;;2.20;99.90;;;1.40;90.37;100990.69;4111795;28;20035;-72
2021/01/04 00:09:22;;;;;;;21.35;13.73;;;1.90;99.90;;;1.49;90.07;100997.94;4119156;28;20522;-71
2021/01/04 00:11:50;;;;;;;20.02;13.10;;;1.80;99.90;;;1.42;90.60;101004.41;4120274;28;20498;-71
2021/01/04 00:14:44;;;;;;;16.90;12.85;;;1.80;99.90;;;1.35;90.79;100993.53;4102964;29;20102;-72
2021/01/04 00:17:06;;;;;;;19.15;12.63;;;1.80;99.90;;;1.41;89.59;101005.34;4109664;28;20035;-71
2021/01/04 00:19:30;;;;;;;22.90;14.63;;;1.80;99.90;;;1.41;89.09;100997.53;4118657;28;20402;-71
2021/01/04 00:22:02;;;;;;;21.13;14.20;;;2.70;99.90;;;1.46;88.70;101003.31;4118057;28;20050;-71
2021/01/04 00:24:25;;;;;;;18.08;13.52;;;1.80;99.90;;;1.54;88.03;100995.88;4105415;28;20066;-71
2021/01/04 00:26:34;;;;;;;19.23;12.80;;;1.80;99.90;;;1.48;87.83;101006.66;4119026;28;20069;-71
2021/01/04 00:28:37;;;;;;;19.60;13.80;;;1.80;99.90;;;1.38;87.84;100989.94;4115610;28;20554;-71
2021/01/04 00:30:46;;;;;;;17.77;12.85;;;1.80;99.90;;;1.38;88.09;100992.53;4117141;28;20023;-71
2021/01/04 00:32:48;;;;;;;17.27;12.98;;;1.70;99.90;;;1.36;87.82;100994.38;4102713;28;20478;-71
2021/01/04 00:34:53;;;;;;;18.85;13.00;;;1.70;99.90;;;1.31;88.05;100999.88;4102603;29;20020;-71
2021/01/04 00:37:29;;;;;;;18.38;13.38;;;1.70;99.90;;;1.17;88.80;100989.44;4117991;28;20038;-71
2021/01/04 00:39:42;;;;;;;19.27;12.30;;;1.70;99.90;;;1.25;88.69;100996.78;4111709;28;20390;-71
2021/01/04 00:41:59;;;;;;;21.63;13.60;;;1.60;99.90;;;1.30;88.08;100998.19;4118914;28;20454;-71
2021/01/04 00:44:06;;;;;;;20.25;13.57;;;1.60;99.90;;;1.20;88.13;100988.41;4103057;28;20098;-71
2021/01/04 00:46:08;;;;;;;18.38;13.93;;;1.60;99.90;;;1.19;88.28;100984.16;4102962;28;20027;-71
2021/01/04 00:48:26;;;;;;;19.17;13.13;;;1.60;99.90;;;1.33;86.76;100986.78;4118279;28;20681;-71
2021/01/04 00:50:54;;;;;;;17.95;12.82;;;1.60;99.90;;;1.25;86.98;100987.25;4102710;28;20594;-71
2021/01/04 00:53:03;;;;;;;19.58;13.18;;;1.60;99.90;;;1.25;86.78;100986.41;4102403;29;20118;-71
2021/01/04 00:55:52;;;;;;;19.73;14.35;;;1.60;99.90;;;1.27;87.38;100987.13;4087034;29;20028;-71
2021/01/04 00:58:26;;;;;;;19.23;13.70;;;1.60;99.90;;;1.22;86.65;100979.63;4104570;28;20074;-71
2021/01/04 01:00:47;;;;;;;20.90;14.05;;;1.80;99.90;;;1.19;86.86;100986.75;4118310;28;20031;-71
2021/01/04 01:03:33;;;;;;;22.52;14.25;;;1.60;99.90;;;1.24;87.39;100984.72;4118131;28;20034;-71
2021/01/04 01:05:52;;;;;;;;;;;1.60;99.90;;;1.17;87.13;100998.97;4098546;28;20542;-71
2021/01/04 01:08:11;;;;;;;16.73;12.68;;;1.50;99.90;;;1.10;88.27;100990.75;4107164;28;19910;-71
2021/01/04 01:10:14;;;;;;;20.15;13.85;;;1.70;99.90;;;1.01;88.64;100986.09;4119515;28;20125;-71
2021/01/04 01:12:50;;;;;;;19.00;13.88;;;1.50;99.90;;;1.10;88.97;100994.19;4118337;28;20027;-71
2021/01/04 01:15:06;;;;;;;19.23;13.35;;;1.50;99.90;;;1.20;88.06;100993.63;4107139;28;20047;-71
2021/01/04 01:17:59;;;;;;;22.55;13.63;;;1.60;99.90;;;1.24;87.59;100988.16;4112872;28;20487;-71
2021/01/04 01:20:02;;;;;;;17.45;12.98;;;1.50;99.90;;;1.25;86.77;100995.03;4096191;29;20039;-72
2021/01/04 01:22:04;;;;;;;17.70;13.00;;;1.60;99.90;;;1.06;88.24;100990.09;4118012;28;20042;-71
2021/01/04 01:24:06;;;;;;;17.92;12.65;;;1.70;99.90;;;1.06;87.97;100992.69;4118233;28;20027;-71
2021/01/04 01:26:15;;;;;;;16.80;12.45;;;1.50;99.90;;;1.02;88.77;100998.13;4102190;29;20419;-71
2021/01/04 01:28:47;;;;;;;23.13;15.30;;;1.50;99.90;;;1.20;88.14;100980.63;4102096;29;20035;-71
2021/01/04 01:31:14;;;;;;;20.30;14.43;;;1.50;99.90;;;1.33;88.61;100994.56;4118977;28;20027;-71
2021/01/04 01:33:45;;;;;;;22.83;14.15;;;1.60;99.90;;;1.14;89.72;100987.03;4117861;28;20033;-71
2021/01/04 01:36:29;;;;;;;19.83;14.85;;;1.60;99.90;;;1.34;89.51;100991.06;4107193;28;20406;-71
2021/01/04 01:39:10;;;;;;;20.58;13.65;;;1.60;99.90;;;1.34;89.12;100986.69;4101507;29;20035;-71
2021/01/04 01:41:54;;;;;;;18.23;13.10;;;1.90;99.90;;;1.49;87.81;100992.75;4118561;28;20132;-71
2021/01/04 01:44:48;;;;;;;20.00;13.57;;;1.80;99.90;;;1.32;88.64;100995.50;4108581;28;20511;-71
2021/01/04 01:47:09;;;;;;;17.15;12.93;;;1.80;99.90;;;1.28;87.74;100978.44;4069780;29;20048;-71
2021/01/04 01:50:07;;;;;;;20.27;13.55;;;1.70;99.90;;;1.29;88.75;100998.28;4054715;29;20413;-71
2021/01/04 01:52:23;;;;;;;17.48;13.18;;;1.70;99.90;;;1.43;88.24;101006.09;4056286;28;20510;-71
2021/01/04 01:54:48;;;;;;;19.23;14.05;;;1.70;99.90;;;1.35;87.47;101001.34;4105195;29;20031;-71
2021/01/04 01:57:14;;;;;;;17.65;13.07;;;1.80;99.90;;;1.27;88.49;100995.78;4111469;28;20031;-71
2021/01/04 01:59:50;;;;;;;21.60;12.65;;;1.80;99.90;;;1.27;88.25;101000.13;4122412;28;20085;-71
2021/01/04 02:02:14;;;;;;;18.20;12.90;;;1.80;99.90;;;1.24;89.47;100997.72;4112936;28;20037;-71
2021/01/04 02:04:30;;;;;;;17.98;12.43;;;1.70;99.90;;;1.28;88.41;100994.84;4122105;28;20402;-71
2021/01/04 02:07:07;;;;;;;18.55;13.43;;;1.70;99.90;;;1.27;88.85;100992.34;4110380;28;20379;-71
2021/01/04 02:09:19;;;;;;;20.80;14.23;;;1.70;99.90;;;1.34;88.25;100991.06;4120811;28;20042;-71
2021/01/04 02:12:00;;;;;;;20.38;13.68;;;1.70;99.90;;;1.37;87.92;100994.31;4122331;28;20085;-71
2021/01/04 02:14:20;;;;;;;20.85;14.05;;;2.50;99.90;;;1.28;88.51;100984.47;4120834;28;20518;-71
2021/01/04 02:17:03;;;;;;;20.75;14.20;;;1.70;99.90;;;1.17;89.29;100986.84;4121176;28;20040;-71
2021/01/04 02:20:12;;;;;;;19.20;12.57;;;1.60;99.90;;;1.25;87.80;100983.81;4078793;29;20035;-71
2021/01/04 02:22:40;;;;;;;19.33;12.85;;;1.60;99.90;;;1.39;86.80;100986.41;4094091;29;20070;-71
2021/01/04 02:24:41;;;;;;;21.00;13.65;;;2.70;99.90;;;1.29;86.98;100972.28;4122083;28;20030;-71
2021/01/04 02:27:07;;;;;;;18.50;14.15;;;1.60;99.90;;;1.37;87.08;100985.69;4122122;28;20045;-71
2021/01/04 02:29:15;;;;;;;20.33;14.00;;;1.60;99.90;;;1.47;85.70;100991.97;4108997;28;20019;-71
2021/01/04 02:31:16;;;;;;;17.45;12.68;;;1.70;99.90;;;1.31;86.32;100991.25;4120775;28;20026;-71
2021/01/04 02:33:18;;;;;;;17.75;13.80;;;1.70;99.90;;;1.29;87.06;100990.47;4121686;28;20346;-71
2021/01/04 02:35:19;;;;;;;20.83;13.63;;;1.70;99.90;;;1.29;87.16;100993.06;4120707;28;20027;-71
2021/01/04 02:37:23;;;;;;;22.52;14.10;;;1.60;99.90;;;1.25;86.16;100983.81;4100732;29;20034;-71
2021/01/04 02:39:55;;;;;;;28.88;14.55;;;1.70;99.90;;;1.46;87.11;100990.31;4113059;28;20039;-71
2021/01/04 02:42:04;;;;;;;21.25;14.35;;;1.70;99.90;;;1.52;86.31;100992.56;4120619;28;20030;-71
2021/01/04 02:44:06;;;;;;;15.68;12.65;;;1.80;99.90;;;1.48;87.39;100985.84;4120776;28;20422;-72
2021/01/04 02:46:12;;;;;;;20.38;14.27;;;1.80;99.90;;;1.46;87.43;100985.13;4120668;28;20109;-71
2021/01/04 02:49:11;;;;;;;18.88;13.85;;;1.90;99.90;;;1.61;86.99;100994.59;4104465;28;20408;-72
2021/01/04 02:51:23;;;;;;;17.77;13.18;;;1.90;99.90;;;1.41;88.18;100979.34;4107608;28;20121;-72
2021/01/04 02:53:45;;;;;;;21.73;13.50;;;1.90;99.90;;;1.36;87.98;100982.22;4108939;28;20030;-71
2021/01/04 02:56:20;;;;;;;21.73;14.75;;;1.90;99.90;;;1.51;87.55;100990.88;4104299;29;20035;-71
2021/01/04 02:59:04;;;;;;;20.35;14.32;;;1.90;99.90;;;1.63;86.77;100990.13;4109010;28;20033;-71
2021/01/04 03:01:19;;;;;;;18.35;13.18;;;1.90;99.90;;;1.63;87.31;100984.94;4104164;29;20028;-71
2021/01/04 03:03:22;;;;;;;20.65;13.93;;;2.00;99.90;;;1.61;88.17;100992.81;4119807;28;20030;-72
2021/01/04 03:05:25;;;;;;;21.05;14.30;;;2.00;99.90;;;1.56;87.78;100979.25;4120273;28;20033;-72
2021/01/04 03:07:32;;;;;;;18.05;13.27;;;2.00;99.90;;;1.56;88.28;100986.22;4121372;28;20082;-71
2021/01/04 03:09:34;;;;;;;17.05;12.75;;;2.00;99.90;;;1.45;88.08;100986.03;4121460;28;20095;-72
2021/01/04 03:11:38;;;;;;;17.98;12.77;;;2.00;99.90;;;1.45;88.06;100979.09;4127615;28;20026;-71
2021/01/04 03:14:16;;;;;;;19.38;13.40;;;2.00;99.90;;;1.47;87.40;100981.56;4104691;28;20090;-72
2021/01/04 03:17:23;;;;;;;18.60;12.68;;;2.00;99.90;;;1.68;85.91;100978.53;4095262;28;20113;-71
2021/01/04 03:19:27;;;;;;;;;;;2.00;99.90;;;1.49;86.71;100970.16;4098005;28;20047;-71
2021/01/04 03:21:29;;;;;;;15.25;11.40;;;2.00;99.90;;;1.46;87.12;100970.38;4120146;28;19974;-71
2021/01/04 03:23:30;;;;;;;18.38;12.82;;;2.00;99.90;;;1.53;86.42;100981.22;4132483;28;20031;-71
2021/01/04 03:25:39;;;;;;;19.55;13.40;;;2.00;99.90;;;1.48;86.31;100970.25;4103914;29;20030;-71
2021/01/04 03:27:41;;;;;;;18.60;13.02;;;2.00;99.90;;;1.45;87.15;100975.66;4120123;28;20150;-72
2021/01/04 03:29:42;;;;;;;16.85;12.13;;;2.00;99.90;;;1.41;86.69;100974.16;4105250;28;20031;-72
2021/01/04 03:31:43;;;;;;;16.52;12.07;;;1.80;99.90;;;1.25;87.53;100952.63;4121175;28;20057;-71
2021/01/04 03:33:44;;;;;;;17.20;12.85;;;2.00;99.90;;;1.27;87.13;100964.59;4119376;28;20034;-72
2021/01/04 03:35:45;;;;;;;18.30;12.27;;;1.90;99.90;;;1.27;87.28;100967.19;4087893;29;20527;-71
2021/01/04 03:37:46;;;;;;;19.70;13.73;;;1.90;99.90;;;1.33;86.60;100969.44;4103640;28;20130;-71
2021/01/04 03:39:47;;;;;;;15.70;11.32;;;1.90;99.90;;;1.37;86.36;100963.13;4115091;28;20065;-72
2021/01/04 03:41:48;;;;;;;16.73;11.68;;;2.00;99.90;;;1.28;86.61;100965.44;4120858;28;20058;-71
2021/01/04 03:43:49;;;;;;;17.58;12.02;;;2.00;99.90;;;1.22;87.13;100968.41;4119806;28;20039;-72
2021/01/04 03:45:50;;;;;;;17.42;12.68;;;1.90;99.90;;;1.38;87.22;100966.53;4103625;29;20050;-72
2021/01/04 03:47:51;;;;;;;15.85;11.68;;;1.90;99.90;;;1.39;86.52;100966.47;4119376;28;20083;-71
2021/01/04 03:49:52;;;;;;;17.10;12.75;;;2.00;99.90;;;1.31;86.74;100957.47;4103558;29;20055;-72
2021/01/04 03:51:56;;;;;;;15.63;12.15;;;2.40;99.90;;;1.28;87.05;100966.28;4103763;29;20415;-71
2021/01/04 03:53:57;;;;;;;18.00;13.05;;;2.00;99.90;;;1.37;86.74;100957.94;4119687;28;20059;-71
2021/01/04 03:55:58;;;;;;;23.63;15.80;;;2.00;99.90;;;1.41;86.27;100958.56;4120777;28;20047;-71
2021/01/04 03:57:59;;;;;;;22.23;14.35;;;2.10;99.90;;;1.44;87.25;100958.38;4119286;28;20033;-71
2021/01/04 04:00:00;;;;;;;21.92;14.68;;;2.10;99.90;;;1.49;87.44;100953.75;4103621;29;20111;-71
2021/01/04 04:02:01;;;;;;;20.13;13.95;;;2.10;99.90;;;1.56;87.72;100957.63;4117973;28;20035;-71
2021/01/04 04:04:02;;;;;;;21.25;13.32;;;2.20;99.90;;;1.83;86.38;100955.09;4120417;28;20092;-71
2021/01/04 04:06:03;;;;;;;22.48;15.65;;;2.20;99.90;;;1.71;86.88;100950.66;4119379;28;20115;-71
2021/01/04 04:08:05;;;;;;;21.27;14.43;;;2.40;99.90;;;1.75;87.57;100952.16;4120753;28;20027;-71
2021/01/04 04:10:09;;;;;;;19.35;14.15;;;2.40;99.90;;;1.76;87.49;100959.03;4103325;29;20027;-72
2021/01/04 04:12:10;;;;;;;22.08;14.95;;;2.40;99.90;;;1.86;87.90;100947.94;4103453;28;20459;-71
2021/01/04 04:14:11;;;;;;;19.33;13.52;;;2.50;99.90;;;1.79;86.97;100954.47;4119810;28;20026;-71
2021/01/04 04:16:16;;;;;;;19.00;14.20;;;2.60;99.90;;;2.01;86.31;100949.59;4119307;28;20446;-71
2021/01/04 04:18:17;;;;;;;20.80;14.43;;;2.60;99.90;;;2.08;86.46;100961.28;4102988;28;20086;-71
2021/01/04 04:20:23;;;;;;;21.52;14.88;;;2.60;99.90;;;2.27;84.80;100960.94;4120395;28;20109;-71
2021/01/04 04:22:24;;;;;;;18.63;13.07;;;2.60;99.90;;;2.16;85.51;100953.81;4119122;28;20030;-71
2021/01/04 04:24:24;;;;;;;17.77;13.40;;;2.70;99.90;;;2.15;85.29;100944.34;4119291;28;20034;-72
2021/01/04 04:26:28;;;;;;;19.35;13.63;;;2.80;99.90;;;2.20;85.65;100944.91;4120311;28;20109;-71
2021/01/04 04:28:29;;;;;;;21.60;14.93;;;2.80;99.90;;;2.34;84.73;100957.03;4119147;28;20026;-71
2021/01/04 04:30:29;;;;;;;17.70;13.77;;;2.90;99.90;;;2.13;85.32;100958.38;4116171;28;20020;-72
2021/01/04 04:32:30;;;;;;;22.50;14.18;;;2.90;99.90;;;2.09;86.51;100952.53;4120303;28;20081;-71
2021/01/04 04:34:32;;;;;;;19.55;14.02;;;2.80;99.90;;;1.99;86.67;100956.66;4119896;28;20687;-71
2021/01/04 04:36:33;;;;;;;20.23;12.75;;;2.70;99.90;;;2.20;86.06;100968.31;4119069;28;20449;-71
2021/01/04 04:38:35;;;;;;;17.92;12.75;;;2.80;99.90;;;2.24;84.75;100956.75;4090763;28;20032;-71
2021/01/04 04:40:36;;;;;;;20.00;13.25;;;2.80;99.90;;;2.17;86.79;100970.28;4119107;28;20526;-71
2021/01/04 04:42:38;;;;;;;19.70;13.68;;;2.80;99.90;;;2.19;86.04;100961.44;4097588;29;20062;-72
2021/01/04 04:44:53;;;;;;;20.02;14.98;;;2.80;99.90;;;2.13;86.07;100974.00;4086962;29;20376;-72
2021/01/04 04:47:44;;;;;;;19.13;13.82;;;2.80;99.90;;;2.18;85.75;100970.16;4091826;29;20046;-71
2021/01/04 04:50:19;;;;;;;20.40;13.73;;;2.90;99.90;;;2.23;85.56;100975.94;4103813;29;20030;-71
2021/01/04 04:52:59;;;;;;;20.55;13.65;;;2.80;99.90;;;2.20;86.65;100970.91;4103894;29;20106;-72
2021/01/04 04:55:27;;;;;;;19.27;13.77;;;2.90;99.90;;;2.31;86.12;100966.78;4091797;29;20102;-71
2021/01/04 04:57:39;;;;;;;20.27;13.75;;;2.90;99.90;;;2.22;86.89;100969.03;4103901;29;20038;-71
2021/01/04 04:59:55;;;;;;;19.88;13.25;;;2.80;99.90;;;2.37;85.51;100955.97;4103777;29;20265;-71
2021/01/04 05:02:18;;;;;;;17.75;13.07;;;2.90;99.90;;;2.10;85.58;100972.41;4086404;29;20043;-72
2021/01/04 05:04:56;;;;;;;18.40;14.05;;;2.90;99.90;;;2.29;86.37;100971.25;4102165;28;20444;-72
2021/01/04 05:07:01;;;;;;;19.95;13.63;;;2.90;99.90;;;2.19;85.00;100966.63;4103709;29;20039;-72
2021/01/04 05:09:14;;;;;;;18.90;13.23;;;2.90;99.90;;;2.20;85.40;100962.28;4115020;28;20143;-72
2021/01/04 05:11:23;;;;;;;20.35;13.30;;;2.90;99.90;;;2.17;85.27;100965.91;4094938;28;20026;-72
2021/01/04 05:13:41;;;;;;;20.95;14.30;;;2.90;99.90;;;2.24;86.08;100967.16;4102390;29;20027;-71
2021/01/04 05:16:01;;;;;;;21.42;14.02;;;2.90;99.90;;;2.28;85.01;100974.78;4117917;28;20030;-71
2021/01/04 05:18:33;;;;;;;20.92;13.18;;;2.90;99.90;;;2.45;85.19;100966.75;4102365;29;20035;-71
2021/01/04 05:21:05;;;;;;;18.25;13.20;;;3.00;99.90;;;2.47;85.47;100972.69;4097166;29;20035;-71
2021/01/04 05:23:25;;;;;;;20.40;14.45;;;3.00;99.90;;;2.41;85.23;100973.09;4100338;29;20059;-71
2021/01/04 05:25:53;;;;;;;20.25;14.10;;;3.00;99.90;;;2.26;86.18;100982.72;4096916;28;20032;-71
2021/01/04 05:28:38;;;;;;;19.20;13.80;;;3.00;99.90;;;2.22;86.33;100982.06;4075864;29;20040;-71
2021/01/04 05:31:33;;;;;;;22.08;14.55;;;2.60;99.90;;;2.34;84.04;100988.25;4113199;28;20031;-71
2021/01/04 05:33:52;;;;;;;19.05;13.15;;;2.80;99.90;;;2.33;85.58;100981.38;4098506;29;20067;-71
2021/01/04 05:36:23;;;;;;;19.10;13.18;;;3.00;99.90;;;2.19;86.91;100974.44;4103654;29;20035;-71
2021/01/04 05:38:47;;;;;;;20.83;15.05;;;3.00;99.90;;;2.24;85.10;100988.00;4090159;29;20039;-71
2021/01/04 05:41:21;;;;;;;24.30;15.23;;;3.00;99.90;;;2.29;85.46;100976.47;4099336;29;20028;-71
2021/01/04 05:43:57;;;;;;;19.30;13.23;;;3.00;99.90;;;2.53;83.98;100982.72;4095696;29;20328;-71
2021/01/04 05:46:23;;;;;;;21.77;13.57;;;3.00;99.90;;;2.52;84.82;100987.06;4115889;28;20034;-71
2021/01/04 05:49:02;;;;;;;20.92;14.13;;;3.10;99.90;;;2.51;85.22;100984.59;4111557;28;20051;-71
2021/01/04 05:51:21;;;;;;;21.98;13.68;;;3.10;99.90;;;2.66;84.41;100986.16;4091408;29;20040;-71
2021/01/04 05:53:23;;;;;;;18.75;13.30;;;3.10;99.90;;;2.68;83.82;100986.94;4107411;28;20038;-71
2021/01/04 05:55:24;;;;;;;20.88;14.60;;;3.20;99.90;;;2.61;84.36;100980.44;4095229;29;20470;-71
2021/01/04 05:57:25;;;;;;;23.88;15.55;;;3.30;99.90;;;2.29;85.43;100986.88;4119213;28;20065;-71
2021/01/04 05:59:26;;;;;;;22.83;14.68;;;3.30;99.90;;;2.45;85.53;100984.97;4134330;28;20019;-71
2021/01/04 06:01:29;;;;;;;20.42;14.25;;;3.20;99.90;;;2.38;85.14;100992.34;4102226;29;20039;-71
2021/01/04 06:03:30;;;;;;;23.98;15.77;;;3.20;99.90;;;2.48;84.82;100977.78;4118003;28;20031;-71
2021/01/04 06:05:31;;;;;;;20.75;14.23;;;3.20;99.90;;;2.53;85.54;100985.31;4119475;28;20058;-72
2021/01/04 06:07:38;;;;;;;21.75;14.20;;;4.60;99.90;;;2.34;86.32;100985.66;4113568;28;20023;-71
2021/01/04 06:09:39;;;;;;;22.77;14.95;;;3.20;99.90;;;2.44;85.37;100986.75;4115552;28;20034;-71
2021/01/04 06:12:20;;;;;;;22.98;14.80;;;3.10;99.90;;;2.42;86.38;100990.38;4119382;28;20019;-71
2021/01/04 06:14:21;;;;;;;23.58;15.63;;;3.10;99.90;;;2.48;86.15;100990.81;4088092;29;20047;-71
2021/01/04 06:16:27;;;;;;;23.50;15.18;;;3.10;99.90;;;2.61;85.99;100990.84;4071794;29;20052;-71
2021/01/04 06:18:28;;;;;;;22.90;14.57;;;3.10;99.90;;;2.61;84.83;100990.84;4117774;28;20117;-71
2021/01/04 06:20:44;;;;;;;23.20;15.30;;;3.10;99.90;;;2.56;85.00;100990.31;4089212;28;20058;-71
2021/01/04 06:22:45;;;;;;;23.80;16.25;;;3.10;99.90;;;2.56;85.97;100990.31;4117797;28;20049;-71
2021/01/04 06:24:57;;;;;;;25.65;15.60;;;3.20;99.90;;;2.63;85.61;100997.63;4119100;28;20186;-72
2021/01/04 06:27:35;;;;;;;26.58;16.48;;;3.20;99.90;;;2.54;85.34;100990.41;4118064;28;20494;-71
2021/01/04 06:29:47;;;;;;;24.38;15.65;;;3.20;99.90;;;2.49;85.99;100991.63;4123535;28;20026;-71
2021/01/04 06:31:53;;;;;;;28.70;17.67;;;3.20;99.90;;;2.44;86.29;100991.94;4121857;28;20027;-71
2021/01/04 06:34:19;;;;;;;27.38;17.05;;;3.20;99.90;;;2.43;86.19;100994.63;4104753;28;20026;-71
2021/01/04 06:36:22;;;;;;;;;;;3.10;99.90;;;2.39;87.17;100994.00;4118542;28;20101;-71
2021/01/04 06:38:29;;;;;;;24.08;16.15;;;3.20;99.90;;;2.36;86.63;100988.16;4107401;28;20255;-71
2021/01/04 06:40:42;;;;;;;24.73;15.90;;;3.10;99.90;;;2.29;88.86;100990.31;4121020;28;20059;-71
2021/01/04 06:42:44;;;;;;;22.88;15.57;;;3.10;99.90;;;2.19;87.86;100990.06;4120911;28;20470;-71
2021/01/04 06:45:24;;;;;;;23.23;16.05;;;3.10;99.90;;;2.28;87.01;100998.22;4120843;28;20058;-71
2021/01/04 06:47:45;;;;;;;25.42;16.15;;;3.10;99.90;;;2.33;87.96;100998.78;4111934;28;20046;-71
2021/01/04 06:50:04;;;;;;;27.42;16.13;;;3.10;99.90;;;2.33;87.76;100998.78;4121707;28;20037;-71
2021/01/04 06:52:42;;;;;;;25.27;16.00;;;3.00;99.90;;;2.24;87.61;100995.81;4121721;28;20086;-71
2021/01/04 06:55:02;;;;;;;25.27;15.40;;;3.10;99.90;;;2.25;88.25;100994.03;4120546;28;20062;-71
2021/01/04 06:57:55;;;;;;;22.92;14.65;;;3.00;99.90;;;2.31;87.29;100987.59;4090093;29;20024;-71
2021/01/04 07:00:05;;;;;;;23.15;15.25;;;2.90;99.90;;;2.16;87.55;100998.06;4095933;28;20038;-71
2021/01/04 07:02:28;;;;;;;25.80;16.40;;;3.00;99.90;;;2.21;87.87;100998.59;4121627;28;20367;-71
2021/01/04 07:04:56;;;;;;;22.08;15.57;;;3.00;99.90;;;2.30;88.96;100991.16;4121385;28;20114;-71
2021/01/04 07:07:09;;;;;;;25.52;16.65;;;3.10;99.90;;;2.26;87.74;100997.47;4121698;28;20080;-71
2021/01/04 07:09:44;;;;;;;24.67;14.60;;;3.10;99.90;;;2.14;88.07;100997.34;4121368;28;20035;-71
2021/01/04 07:11:54;;;;;;;25.50;17.30;;;3.00;99.90;;;2.19;88.33;100994.44;4121611;28;20089;-71
2021/01/04 07:14:34;;;;;;;22.15;15.43;;;3.00;99.90;;;2.29;88.75;101000.72;4120105;28;20062;-71
2021/01/04 07:16:49;;;;;;;23.85;15.98;;;3.00;99.90;;;2.23;88.58;100999.34;4121658;28;20106;-71
2021/01/04 07:19:26;;;;;;;24.48;15.88;;;3.00;99.90;;;2.19;88.82;100997.88;4119237;28;20460;-71
2021/01/04 07:22:00;;;;;;;25.55;16.25;;;3.00;99.90;;;2.18;88.96;100996.19;4121398;28;20089;-71
2021/01/04 07:24:24;;;;;;;24.83;16.58;;;3.10;99.90;;;2.26;89.84;101000.09;4107980;28;20505;-72
2021/01/04 07:26:56;;;;;;;26.10;17.05;;;3.10;99.90;;;2.39;89.57;101001.00;4120026;28;20051;-72
2021/01/04 07:29:05;;;;;;;26.17;16.15;;;3.10;99.90;;;2.49;88.79;100996.84;4109060;28;20126;-71
2021/01/04 07:31:42;;;;;;;27.40;17.05;;;3.10;99.90;;;2.36;88.05;101003.78;4129558;28;20031;-71
2021/01/04 07:34:05;;;;;;;25.70;16.88;;;3.20;99.90;;;2.00;89.59;101005.13;4119760;28;20027;-71
2021/01/04 07:36:21;;;;;;;27.20;16.55;;;3.20;99.90;;;2.10;90.99;101003.66;4119547;28;20037;-71
2021/01/04 07:38:39;;;;;;;27.35;17.02;;;3.10;99.90;;;2.21;90.73;100997.78;4108006;28;20062;-71
2021/01/04 07:41:01;;;;;;;27.23;16.65;;;3.10;99.90;;;2.32;90.11;100997.09;4110715;28;20049;-71
2021/01/04 07:43:17;;;;;;;28.52;17.58;;;3.00;99.90;;;2.21;90.11;100998.59;4120945;28;20053;-71
2021/01/04 07:45:45;;;;;;;27.98;17.85;;;3.10;99.90;;;2.28;90.69;101006.00;4108609;28;20050;-72
2021/01/04 07:48:04;;;;;;;30.02;18.15;;;3.10;99.90;;;2.35;89.62;101000.34;4120638;28;20030;-71
2021/01/04 07:50:51;;;;;;;28.77;17.13;;;3.10;99.90;;;2.18;88.84;101008.38;4119791;28;20027;-71
2021/01/04 07:53:29;;;;;;;28.88;18.88;;;3.10;99.90;;;2.19;89.43;101000.47;4120863;28;20148;-71
2021/01/04 07:56:17;;;;;;;30.65;18.42;;;3.20;99.90;;;2.14;89.88;100994.72;4110893;28;20402;-72
2021/01/04 07:58:55;;;;;;;26.45;17.35;;;3.10;99.90;;;2.28;89.91;101011.22;4107808;28;20065;-72
2021/01/04 08:01:32;;;;;;;30.15;17.67;;;3.10;99.90;;;2.27;89.44;101007.78;4120737;28;20058;-72
2021/01/04 08:03:45;;;;;;;29.95;18.98;;;3.20;99.90;;;2.18;89.42;101011.81;4110754;28;20573;-71
2021/01/04 08:06:26;;;;;;;28.27;18.38;;;3.10;99.90;;;2.28;90.13;101008.63;4120692;28;20062;-72
2021/01/04 08:08:47;;;;;;;29.50;18.35;;;3.10;99.90;;;2.20;89.98;101009.13;4112575;28;20066;-72
2021/01/04 08:11:34;;;;;;;28.77;18.33;;;3.10;99.90;;;2.15;89.29;101019.78;4120446;28;20033;-71
2021/01/04 08:14:23;;;;;;;29.48;18.40;;;3.20;99.90;;;2.00;91.93;101014.72;4120571;28;20091;-72
2021/01/04 08:16:31;;;;;;;29.85;19.05;;;3.10;99.90;;;2.01;91.71;101012.03;4111435;28;20391;-71
2021/01/04 08:18:34;;;;;;;28.58;17.90;;;3.10;99.90;;;2.14;90.92;101007.75;4119256;28;20406;-71
2021/01/04 08:20:37;;;;;;;31.25;19.23;;;3.10;99.90;;;2.20;90.48;101007.34;4101442;29;20023;-73
2021/01/04 08:22:56;;;;;;;31.95;19.05;;;3.10;99.90;;;2.21;90.56;101013.41;4119535;28;20023;-72
2021/01/04 08:25:29;;;;;;;29.63;18.45;;;3.10;99.90;;;2.19;90.48;101010.88;4120418;28;20093;-72
2021/01/04 08:27:55;;;;;;;28.92;18.02;;;3.20;99.90;;;2.10;90.22;101021.03;4119452;28;20027;-71
2021/01/04 08:30:25;;;;;;;32.30;19.17;;;3.20;99.90;;;2.18;91.78;101019.59;4111737;28;20581;-71
2021/01/04 08:32:58;;;;;;;28.90;18.45;;;3.20;99.90;;;2.21;89.44;101014.22;4107362;28;20031;-71
2021/01/04 08:35:25;;;;;;;32.13;19.40;;;3.30;99.90;;;2.06;91.42;101020.38;4113206;28;20497;-71
2021/01/04 08:37:41;;;;;;;31.63;19.50;;;3.20;99.90;;;2.03;91.07;101025.75;4104787;28;20019;-71
2021/01/04 08:39:52;;;;;;;29.23;17.75;;;3.30;99.90;;;1.89;92.23;101025.78;4115068;28;20062;-71
2021/01/04 08:42:11;;;;;;;36.42;22.35;;;3.10;99.90;;;1.96;92.73;101034.91;4118665;28;20030;-71
2021/01/04 08:44:19;;;;;;;35.25;20.35;;;3.10;99.90;;;1.81;92.38;101032.38;4120045;28;20406;-71
2021/01/04 08:46:23;;;;;;;35.10;20.10;;;3.10;99.90;;;1.76;92.61;101029.25;4118652;28;20034;-71
2021/01/04 08:48:37;;;;;;;32.83;20.23;;;3.10;99.90;;;1.94;93.22;101028.13;4102584;29;20027;-74
2021/01/04 08:50:40;;;;;;;32.60;20.77;;;3.00;99.90;;;2.06;92.42;101030.78;4101231;29;20058;-73
2021/01/04 08:52:48;;;;;;;37.00;21.75;;;3.10;99.90;;;1.94;91.76;101022.91;4099548;29;20026;-72
2021/01/04 08:55:00;;;;;;;32.90;19.70;;;3.10;99.90;;;2.06;91.76;101032.56;4094984;29;20030;-72
2021/01/04 08:57:16;;;;;;;34.15;20.17;;;3.10;99.90;;;2.08;91.16;101033.28;4095524;29;20035;-72
2021/01/04 08:59:28;;;;;;;31.67;20.20;;;3.10;99.90;;;2.03;91.07;101025.75;4093357;29;20035;-71
2021/01/04 09:01:29;;;;;;;34.33;19.42;;;3.10;99.90;;;2.04;91.57;101030.03;4121843;28;20027;-72
2021/01/04 09:03:34;;;;;;;30.25;18.77;;;3.10;99.90;;;1.93;91.38;101029.88;4119114;28;20026;-73
2021/01/04 09:05:39;;;;;;;;;;;3.90;99.90;;;1.98;91.71;101027.81;4111585;28;20055;-73
2021/01/04 09:07:51;;;;;;;34.10;20.75;;;3.10;99.90;;;1.82;92.90;101019.31;4117621;28;19996;-73
2021/01/04 09:10:03;;;;;;;36.90;20.23;;;3.10;99.90;;;2.11;92.67;101023.53;4089998;29;20043;-72
2021/01/04 09:12:37;;;;;;;33.20;19.95;;;3.10;99.90;;;2.13;92.57;101023.44;4118019;28;20022;-73
2021/01/04 09:14:51;;;;;;;30.88;19.85;;;3.20;99.90;;;2.22;90.98;101021.09;4100800;28;20080;-74
2021/01/04 09:16:52;;;;;;;36.92;21.65;;;3.20;99.90;;;2.34;90.30;101035.09;4101459;29;20031;-72
2021/01/04 09:19:20;;;;;;;32.85;20.58;;;3.30;99.90;;;2.24;90.59;101029.63;4117404;28;20078;-72
2021/01/04 09:21:33;;;;;;;30.90;20.83;;;3.30;99.90;;;2.11;91.55;101039.16;4117901;28;20026;-72
2021/01/04 09:23:40;;;;;;;34.78;21.40;;;3.40;99.90;;;1.95;92.38;101030.59;4114053;28;20406;-71
2021/01/04 09:25:54;;;;;;;36.38;20.48;;;3.60;99.90;;;2.15;91.32;101021.59;4110109;28;20034;-72
2021/01/04 09:27:56;;;;;;;31.83;19.60;;;3.30;99.90;;;2.16;91.52;101029.28;4118722;28;20026;-72
2021/01/04 09:30:09;;;;;;;32.20;19.85;;;3.30;99.90;;;2.18;91.17;101019.59;4114685;28;20122;-72
2021/01/04 09:32:15;;;;;;;36.40;21.27;;;3.30;99.90;;;2.36;91.74;101024.63;4116065;28;20027;-73
2021/01/04 09:34:18;;;;;;;32.83;19.63;;;3.30;99.90;;;2.49;92.12;101026.31;4093592;28;20530;-71